Time;durP1;ratioP1;P1;durP2;ratioP2;P2;SDS_P1;SDS_P2;PMS_P1;PMS_P2;Temp;Humidity;BMP_temperature;BMP_pressure;BME280_temperature;BME280_humidity;BME280_pressure;Samples;Min_cycle;Max_cycle;Signal;HPM_P1;HPM_P2
2022/08/11 00:02:29;;;;;;;;;;;19.70;92.30;;;;;;5097286;28;19934;-68
2022/08/11 00:04:55;;;;;;;;;;;19.70;92.40;;;;;;5102321;28;19913;-69
2022/08/11 00:07:22;;;;;;;;;;;19.70;92.50;;;;;;5104166;28;19969;-68
2022/08/11 00:09:47;;;;;;;;;;;19.50;92.70;;;;;;5097352;28;19923;-69
2022/08/11 00:12:14;;;;;;;;;;;19.50;92.60;;;;;;5101375;28;19908;-68
2022/08/11 00:14:40;;;;;;;;;;;19.50;92.80;;;;;;5098757;28;19979;-68
2022/08/11 00:17:07;;;;;;;;;;;19.50;92.90;;;;;;5098538;28;19942;-69
2022/08/11 00:19:34;;;;;;;;;;;19.40;93.00;;;;;;5099239;28;19912;-68
2022/08/11 00:22:00;;;;;;;;;;;19.50;93.00;;;;;;5105106;28;19938;-68
2022/08/11 00:24:32;;;;;;;;;;;19.50;92.50;;;;;;5098078;28;19922;-68
2022/08/11 00:26:58;;;;;;;;;;;19.50;92.60;;;;;;5102858;28;19970;-67
2022/08/11 00:29:23;;;;;;;;;;;19.40;93.10;;;;;;5105483;28;19921;-68
2022/08/11 00:31:53;;;;;;;;;;;19.30;93.20;;;;;;5101799;28;19913;-69
2022/08/11 00:34:22;;;;;;;;;;;19.30;93.50;;;;;;5104791;28;19930;-67
2022/08/11 00:36:51;;;;;;;;;;;19.20;94.40;;;;;;5101655;28;19920;-68
2022/08/11 00:39:19;;;;;;;;;;;19.20;94.50;;;;;;5101841;28;19962;-69
2022/08/11 00:41:54;;;;;;;;;;;19.10;95.50;;;;;;5104047;28;20448;-68
2022/08/11 00:44:36;;;;;;;;;;;19.00;96.40;;;;;;5103187;28;19912;-69
2022/08/11 00:47:07;;;;;;;;;;;18.80;97.50;;;;;;5084235;28;19911;-67
2022/08/11 00:49:36;;;;;;;;;;;18.70;99.10;;;;;;5104930;28;19923;-69
2022/08/11 00:52:01;;;;;;;;;;;18.60;99.90;;;;;;5107330;28;19954;-69
2022/08/11 00:54:36;;;;;;;;;;;18.60;99.90;;;;;;5106389;28;19912;-69
2022/08/11 00:57:20;;;;;;;;;;;18.50;99.90;;;;;;5101808;28;19912;-68
2022/08/11 01:00:05;;;;;;;;;;;18.50;99.90;;;;;;5103515;28;19946;-68
2022/08/11 01:02:35;;;;;;;;;;;18.30;99.90;;;;;;5105773;28;19919;-68
2022/08/11 01:05:24;;;;;;;;;;;18.30;99.90;;;;;;5099934;28;19912;-69
2022/08/11 01:07:49;;;;;;;;;;;18.30;99.90;;;;;;5104080;28;19912;-69
2022/08/11 01:10:33;;;;;;;;;;;18.20;99.90;;;;;;5102117;28;19906;-69
2022/08/11 01:13:05;;;;;;;;;;;18.20;99.90;;;;;;5099842;28;19920;-69
2022/08/11 01:15:39;;;;;;;;;;;18.20;99.90;;;;;;5104134;28;19924;-69
2022/08/11 01:18:19;;;;;;;;;;;18.10;99.90;;;;;;5102786;28;20085;-70
2022/08/11 01:21:06;;;;;;;;;;;18.10;99.90;;;;;;5099568;28;19901;-68
2022/08/11 01:23:54;;;;;;;;;;;18.10;99.90;;;;;;5064221;28;19919;-69
2022/08/11 01:26:22;;;;;;;;;;;18.00;99.90;;;;;;5098589;28;19917;-69
2022/08/11 01:28:54;;;;;;;;;;;18.00;99.90;;;;;;5102419;28;19900;-68
2022/08/11 01:31:38;;;;;;;;;;;17.90;99.90;;;;;;5102126;28;19912;-68
2022/08/11 01:34:22;;;;;;;;;;;17.90;99.90;;;;;;5101363;28;19912;-68
2022/08/11 01:36:57;;;;;;;;;;;17.80;99.90;;;;;;5099600;28;19946;-68
2022/08/11 01:39:42;;;;;;;;;;;17.90;99.90;;;;;;5102144;28;19907;-69
2022/08/11 01:45:19;;;;;;;;;;;17.80;99.90;;;;;;5102960;28;19924;-68
2022/08/11 01:48:03;;;;;;;;;;;17.70;99.90;;;;;;5107006;28;20250;-68
2022/08/11 01:50:41;;;;;;;;;;;17.60;99.90;;;;;;5104094;28;19912;-68
2022/08/11 01:53:18;;;;;;;;;;;17.50;99.90;;;;;;5099507;28;19980;-69
2022/08/11 01:56:03;;;;;;;;;;;17.40;99.90;;;;;;5102568;28;19931;-69
2022/08/11 01:58:48;;;;;;;;;;;17.30;99.90;;;;;;5103306;28;19935;-69
2022/08/11 02:01:33;;;;;;;;;;;17.30;99.90;;;;;;5040039;28;19948;-68
2022/08/11 02:04:07;;;;;;;;;;;17.20;99.90;;;;;;5099160;28;19920;-69
2022/08/11 02:06:54;;;;;;;;;;;17.20;99.90;;;;;;5099825;28;19940;-68
2022/08/11 02:09:29;;;;;;;;;;;17.10;99.90;;;;;;5101071;28;19967;-68
2022/08/11 02:12:02;;;;;;;;;;;17.10;99.90;;;;;;5097718;28;19912;-70
2022/08/11 02:14:36;;;;;;;;;;;17.10;99.90;;;;;;5104538;28;19912;-70
2022/08/11 02:17:01;;;;;;;;;;;17.10;99.90;;;;;;5090517;28;19949;-68
2022/08/11 02:25:25;;;;;;;;;;;17.00;99.90;;;;;;5100702;28;19974;-67
2022/08/11 02:27:59;;;;;;;;;;;17.00;99.90;;;;;;5101229;28;19923;-67
2022/08/11 02:30:28;;;;;;;;;;;17.00;99.90;;;;;;5097997;28;19925;-69
2022/08/11 02:35:44;;;;;;;;;;;16.90;99.90;;;;;;5102536;28;19930;-68
2022/08/11 02:38:18;;;;;;;;;;;16.90;99.90;;;;;;5086733;28;19939;-68
2022/08/11 02:40:53;;;;;;;;;;;16.90;99.90;;;;;;5099208;28;20423;-68
2022/08/11 02:43:18;;;;;;;;;;;16.90;99.90;;;;;;5097532;28;20310;-68
2022/08/11 02:45:59;;;;;;;;;;;16.90;99.90;;;;;;5096056;28;20011;-68
2022/08/11 02:51:52;;;;;;;;;;;16.80;99.90;;;;;;5095292;28;20230;-67
2022/08/11 02:54:20;;;;;;;;;;;16.80;99.90;;;;;;5106045;28;19975;-69
2022/08/11 02:56:52;;;;;;;;;;;16.70;99.90;;;;;;5104014;28;19921;-69
2022/08/11 03:02:10;;;;;;;;;;;16.60;99.90;;;;;;5098418;28;19927;-68
2022/08/11 03:04:55;;;;;;;;;;;16.50;99.90;;;;;;5105823;28;19918;-69
2022/08/11 03:07:24;;;;;;;;;;;16.50;99.90;;;;;;5105631;28;19919;-68
2022/08/11 03:09:54;;;;;;;;;;;16.50;99.90;;;;;;5098427;28;19919;-69
2022/08/11 03:18:11;;;;;;;;;;;16.30;99.90;;;;;;5105504;28;20062;-69
2022/08/11 03:21:01;;;;;;;;;;;16.30;99.90;;;;;;5100768;28;19923;-69
2022/08/11 03:23:34;;;;;;;;;;;16.30;99.90;;;;;;5108246;28;19900;-70
2022/08/11 03:26:00;;;;;;;;;;;16.30;99.90;;;;;;5082548;28;19948;-68
2022/08/11 03:28:50;;;;;;;;;;;16.20;99.90;;;;;;5103047;28;19919;-68
2022/08/11 03:31:34;;;;;;;;;;;16.10;99.90;;;;;;5101140;28;19912;-69
2022/08/11 03:34:05;;;;;;;;;;;16.10;99.90;;;;;;5096376;28;19942;-69
2022/08/11 03:36:49;;;;;;;;;;;16.00;99.90;;;;;;5099010;28;20212;-68
2022/08/11 03:39:31;;;;;;;;;;;16.00;99.90;;;;;;5106619;28;19916;-69
2022/08/11 03:42:09;;;;;;;;;;;15.90;99.90;;;;;;5088395;28;19900;-68
2022/08/11 03:44:54;;;;;;;;;;;15.90;99.90;;;;;;5101491;28;19943;-67
2022/08/11 03:47:30;;;;;;;;;;;16.00;99.90;;;;;;5104243;28;19907;-70
2022/08/11 03:50:06;;;;;;;;;;;15.90;99.90;;;;;;5103406;28;20438;-69
2022/08/11 03:52:31;;;;;;;;;;;16.00;99.90;;;;;;5086618;28;19912;-67
2022/08/11 03:55:14;;;;;;;;;;;15.90;99.90;;;;;;5094758;28;19908;-68
2022/08/11 03:57:58;;;;;;;;;;;16.00;99.90;;;;;;5099648;28;19968;-67
2022/08/11 04:00:23;;;;;;;;;;;16.00;99.90;;;;;;5087461;28;19912;-67
2022/08/11 04:03:01;;;;;;;;;;;16.00;99.90;;;;;;5095602;28;19966;-69
2022/08/11 04:05:35;;;;;;;;;;;15.90;99.90;;;;;;5084844;28;20498;-69
2022/08/11 04:08:19;;;;;;;;;;;15.90;99.90;;;;;;5084688;28;19912;-69
2022/08/11 04:10:46;;;;;;;;;;;15.80;99.90;;;;;;5075391;28;20306;-68
2022/08/11 04:13:30;;;;;;;;;;;15.80;99.90;;;;;;5090822;28;20366;-68
2022/08/11 04:16:18;;;;;;;;;;;15.80;99.90;;;;;;5089116;28;21347;-68
2022/08/11 04:19:02;;;;;;;;;;;15.70;99.90;;;;;;5053505;28;19912;-67
2022/08/11 04:21:34;;;;;;;;;;;15.70;99.90;;;;;;5087952;28;19912;-69
2022/08/11 04:24:08;;;;;;;;;;;15.60;99.90;;;;;;5084953;28;19913;-69
2022/08/11 04:26:52;;;;;;;;;;;15.60;99.90;;;;;;5083439;28;19918;-67
2022/08/11 04:29:24;;;;;;;;;;;15.70;99.90;;;;;;5086726;28;19912;-68
2022/08/11 04:31:52;;;;;;;;;;;15.70;99.90;;;;;;5094641;28;19919;-69
2022/08/11 04:34:18;;;;;;;;;;;15.70;99.90;;;;;;5089329;28;19916;-70
2022/08/11 04:40:00;;;;;;;;;;;15.80;99.90;;;;;;5086303;28;19927;-69
2022/08/11 04:45:34;;;;;;;;;;;15.80;99.90;;;;;;5088863;28;19920;-68
2022/08/11 05:02:52;;;;;;;;;;;15.60;99.90;;;;;;5089777;28;19920;-68
2022/08/11 05:05:30;;;;;;;;;;;15.70;99.90;;;;;;5083170;28;20539;-69
2022/08/11 05:07:55;;;;;;;;;;;15.70;99.90;;;;;;5084802;28;19967;-68
2022/08/11 05:10:41;;;;;;;;;;;15.70;99.90;;;;;;5083886;28;19952;-69
2022/08/11 05:35:42;;;;;;;;;;;15.60;99.90;;;;;;5089352;28;19927;-69
2022/08/11 05:57:54;;;;;;;;;;;15.80;99.90;;;;;;5085851;28;19934;-69
2022/08/11 06:00:20;;;;;;;;;;;15.80;99.90;;;;;;5082009;28;19940;-69
2022/08/11 06:02:48;;;;;;;;;;;15.90;99.90;;;;;;5087716;28;19913;-68
2022/08/11 06:05:14;;;;;;;;;;;15.90;99.90;;;;;;5067186;28;20401;-68
2022/08/11 06:07:40;;;;;;;;;;;15.90;99.90;;;;;;5085096;28;19951;-68
2022/08/11 06:10:07;;;;;;;;;;;16.00;99.90;;;;;;5083648;28;19923;-68
2022/08/11 06:12:36;;;;;;;;;;;16.00;99.90;;;;;;5081310;28;19923;-68
2022/08/11 06:15:11;;;;;;;;;;;16.10;99.90;;;;;;5087853;28;19920;-69
2022/08/11 06:17:45;;;;;;;;;;;16.20;99.90;;;;;;5094128;28;19912;-69
2022/08/11 06:20:12;;;;;;;;;;;16.30;99.90;;;;;;5073074;28;19916;-68
2022/08/11 06:22:38;;;;;;;;;;;16.30;99.90;;;;;;5079596;28;20323;-69
2022/08/11 06:25:05;;;;;;;;;;;16.40;99.90;;;;;;5083420;28;19917;-68
2022/08/11 06:27:32;;;;;;;;;;;16.50;99.90;;;;;;5074603;28;19916;-69
2022/08/11 06:29:58;;;;;;;;;;;16.70;99.90;;;;;;5080805;28;19974;-69
2022/08/11 06:32:31;;;;;;;;;;;16.70;99.90;;;;;;5093984;28;19916;-70
2022/08/11 06:34:58;;;;;;;;;;;16.80;99.90;;;;;;5082054;28;19952;-70
2022/08/11 06:37:41;;;;;;;;;;;16.90;99.90;;;;;;5090965;28;19927;-68
2022/08/11 06:40:12;;;;;;;;;;;17.00;99.90;;;;;;5085153;28;19927;-69
2022/08/11 06:42:57;;;;;;;;;;;17.10;99.90;;;;;;5082773;28;19920;-68
2022/08/11 06:45:25;;;;;;;;;;;17.20;99.90;;;;;;5084395;28;19919;-70
2022/08/11 06:47:52;;;;;;;;;;;17.30;99.90;;;;;;5093341;28;20334;-67
2022/08/11 06:53:04;;;;;;;;;;;17.60;99.90;;;;;;5081858;28;20342;-68
2022/08/11 07:01:04;;;;;;;;;;;17.90;99.90;;;;;;5091435;28;19969;-69
2022/08/11 07:03:31;;;;;;;;;;;18.10;99.90;;;;;;5084232;28;20011;-68
2022/08/11 07:06:23;;;;;;;;;;;18.20;99.90;;;;;;5089581;28;19912;-68
2022/08/11 07:17:36;;;;;;;;;;;19.00;99.90;;;;;;5055341;28;19980;-68
2022/08/11 07:31:35;;;;;;;;;;;19.80;99.90;;;;;;5079806;28;19998;-67
2022/08/11 07:34:00;;;;;;;;;;;20.00;99.90;;;;;;5063482;28;20384;-68
2022/08/11 07:36:27;;;;;;;;;;;20.10;99.90;;;;;;5072141;28;19955;-67
2022/08/11 07:38:55;;;;;;;;;;;20.30;99.90;;;;;;5077787;28;20270;-67
2022/08/11 07:41:22;;;;;;;;;;;20.40;99.90;;;;;;5072627;28;19909;-68
2022/08/11 07:43:50;;;;;;;;;;;20.50;99.90;;;;;;5078890;28;19912;-67
2022/08/11 07:54:31;;;;;;;;;;;20.90;99.90;;;;;;5073527;28;19927;-69
2022/08/11 07:56:57;;;;;;;;;;;21.00;99.90;;;;;;5077262;28;19920;-69
2022/08/11 08:18:39;;;;;;;;;;;21.80;99.90;;;;;;5079995;28;20278;-69
2022/08/11 08:21:11;;;;;;;;;;;21.90;99.90;;;;;;5078861;28;19928;-71
2022/08/11 08:23:42;;;;;;;;;;;22.00;99.60;;;;;;5081765;28;19916;-68
2022/08/11 08:26:57;;;;;;;;;;;22.10;98.60;;;;;;5079968;28;19928;-68
2022/08/11 08:30:46;;;;;;;;;;;22.30;97.00;;;;;;5075289;28;19912;-69
2022/08/11 08:31:42;;;;;;;;;;;22.50;96.40;;;;;;5079734;28;19919;-69
2022/08/11 08:34:08;;;;;;;;;;;22.70;94.60;;;;;;5081322;28;19912;-70
2022/08/11 08:36:34;;;;;;;;;;;22.80;92.40;;;;;;5059507;28;19920;-70
2022/08/11 08:39:00;;;;;;;;;;;22.90;91.90;;;;;;5064493;28;19931;-69
2022/08/11 08:41:27;;;;;;;;;;;23.10;90.70;;;;;;5081729;28;20403;-69
2022/08/11 08:43:55;;;;;;;;;;;23.10;86.60;;;;;;5074330;28;19928;-68
2022/08/11 08:46:24;;;;;;;;;;;23.30;85.60;;;;;;5083756;28;19912;-69
2022/08/11 08:48:50;;;;;;;;;;;23.40;83.10;;;;;;5083205;28;19919;-70
2022/08/11 08:51:34;;;;;;;;;;;23.40;83.90;;;;;;5086503;28;19920;-71
2022/08/11 08:54:02;;;;;;;;;;;23.60;81.50;;;;;;5079167;28;19912;-70
2022/08/11 08:56:28;;;;;;;;;;;23.80;80.20;;;;;;5084863;28;19920;-70
2022/08/11 08:58:58;;;;;;;;;;;24.00;77.60;;;;;;5082092;28;20300;-70
2022/08/11 09:01:24;;;;;;;;;;;24.00;76.30;;;;;;5087154;28;19919;-70
2022/08/11 09:03:50;;;;;;;;;;;24.00;77.30;;;;;;5080587;28;19999;-69
2022/08/11 09:06:16;;;;;;;;;;;24.10;75.90;;;;;;5064678;28;20014;-70
2022/08/11 09:08:43;;;;;;;;;;;24.10;74.70;;;;;;5083878;28;19976;-71
2022/08/11 09:13:54;;;;;;;;;;;24.30;74.70;;;;;;5076477;28;20266;-70
2022/08/11 09:16:21;;;;;;;;;;;24.40;74.30;;;;;;5078015;28;20390;-71
2022/08/11 09:18:47;;;;;;;;;;;24.60;73.30;;;;;;5081278;28;20231;-71
2022/08/11 09:21:14;;;;;;;;;;;24.70;71.70;;;;;;5084212;28;19935;-71
2022/08/11 09:29:10;;;;;;;;;;;25.10;70.00;;;;;;5080571;28;19943;-69
2022/08/11 09:31:36;;;;;;;;;;;25.20;68.90;;;;;;5079794;28;19913;-69
2022/08/11 09:34:02;;;;;;;;;;;25.30;69.10;;;;;;5081867;28;19925;-70
2022/08/11 09:41:59;;;;;;;;;;;25.50;67.00;;;;;;5080878;28;19942;-72
2022/08/11 09:47:13;;;;;;;;;;;25.80;65.90;;;;;;5075764;28;19920;-70
2022/08/11 09:49:47;;;;;;;;;;;25.80;65.30;;;;;;5079828;28;19912;-70
2022/08/11 09:52:14;;;;;;;;;;;25.80;64.40;;;;;;5080247;28;20287;-70
2022/08/11 09:54:40;;;;;;;;;;;25.80;64.10;;;;;;5089904;28;19912;-71
2022/08/11 09:59:51;;;;;;;;;;;25.80;65.30;;;;;;5076769;28;19935;-70
2022/08/11 10:02:22;;;;;;;;;;;25.90;63.60;;;;;;5083147;28;20362;-71
2022/08/11 10:04:48;;;;;;;;;;;26.00;63.00;;;;;;5091062;28;19916;-69
2022/08/11 10:07:15;;;;;;;;;;;26.00;64.70;;;;;;5069767;28;19935;-70
2022/08/11 10:09:40;;;;;;;;;;;26.00;62.50;;;;;;5078528;28;20090;-69
2022/08/11 10:12:11;;;;;;;;;;;26.00;60.90;;;;;;5063971;28;20085;-69
2022/08/11 10:17:27;;;;;;;;;;;26.00;62.00;;;;;;5080775;28;19927;-71
2022/08/11 10:19:56;;;;;;;;;;;26.20;60.20;;;;;;5081800;28;19912;-69
2022/08/11 10:27:55;;;;;;;;;;;26.40;59.30;;;;;;5082084;28;19957;-70
2022/08/11 10:35:51;;;;;;;;;;;26.60;57.60;;;;;;5079603;28;19990;-70
2022/08/11 10:38:17;;;;;;;;;;;26.80;56.90;;;;;;5077683;28;19955;-69
2022/08/11 10:40:44;;;;;;;;;;;26.90;56.30;;;;;;5076752;28;20273;-71
2022/08/11 10:43:13;;;;;;;;;;;26.90;56.30;;;;;;5078721;28;19912;-70
2022/08/11 10:48:25;;;;;;;;;;;26.80;55.70;;;;;;5078936;28;20011;-69
2022/08/11 10:59:07;;;;;;;;;;;27.20;55.20;;;;;;5075531;28;19955;-71
2022/08/11 11:01:34;;;;;;;;;;;27.20;54.60;;;;;;5075318;28;20348;-70
2022/08/11 11:04:03;;;;;;;;;;;27.20;54.60;;;;;;5069764;28;20342;-68
2022/08/11 11:06:31;;;;;;;;;;;27.20;53.40;;;;;;5078497;28;19974;-71
2022/08/11 11:09:10;;;;;;;;;;;27.30;52.70;;;;;;5075177;28;19926;-71
2022/08/11 11:19:45;;;;;;;;;;;27.70;51.70;;;;;;5075996;28;19916;-68
2022/08/11 11:25:02;;;;;;;;;;;27.90;51.80;;;;;;5079723;28;20415;-70
2022/08/11 11:27:34;;;;;;;;;;;28.00;52.10;;;;;;5075671;28;19948;-70
2022/08/11 11:30:00;;;;;;;;;;;27.90;51.10;;;;;;5058602;28;19920;-69
2022/08/11 11:32:34;;;;;;;;;;;27.90;50.80;;;;;;5074055;28;20563;-70
2022/08/11 11:35:03;;;;;;;;;;;27.90;50.10;;;;;;5078231;28;19952;-71
2022/08/11 11:37:31;;;;;;;;;;;28.10;51.40;;;;;;5074844;28;19967;-70
2022/08/11 11:39:57;;;;;;;;;;;28.20;51.10;;;;;;5077324;28;19920;-70
2022/08/11 11:42:23;;;;;;;;;;;28.30;47.80;;;;;;5083789;28;19912;-70
2022/08/11 11:44:49;;;;;;;;;;;28.40;46.20;;;;;;5071173;28;20068;-69
2022/08/11 11:47:18;;;;;;;;;;;28.50;45.80;;;;;;5078312;28;20007;-69
2022/08/11 11:49:44;;;;;;;;;;;28.50;46.10;;;;;;5081852;28;19920;-69
2022/08/11 11:52:16;;;;;;;;;;;28.50;46.30;;;;;;5076173;28;19967;-68
2022/08/11 11:54:41;;;;;;;;;;;28.50;46.30;;;;;;5080178;28;20278;-71
2022/08/11 12:02:51;;;;;;;;;;;28.80;44.10;;;;;;5087404;28;20246;-69
2022/08/11 12:05:17;;;;;;;;;;;28.70;43.70;;;;;;5062101;28;19927;-70
2022/08/11 12:10:27;;;;;;;;;;;28.90;43.90;;;;;;5076648;28;19966;-69
2022/08/11 12:15:37;;;;;;;;;;;29.00;42.70;;;;;;5076165;28;19931;-69
2022/08/11 12:18:03;;;;;;;;;;;29.00;41.60;;;;;;5081600;28;19916;-69
2022/08/11 12:20:30;;;;;;;;;;;28.90;39.80;;;;;;5075356;28;19916;-68
2022/08/11 12:28:24;;;;;;;;;;;29.00;40.90;;;;;;5073271;28;19962;-70
2022/08/11 12:30:50;;;;;;;;;;;29.10;41.10;;;;;;5071958;28;19953;-69
2022/08/11 12:33:17;;;;;;;;;;;29.20;40.90;;;;;;5070830;28;19924;-69
2022/08/11 12:35:44;;;;;;;;;;;29.30;40.60;;;;;;5076279;28;19920;-70
2022/08/11 12:38:10;;;;;;;;;;;29.30;40.00;;;;;;5055463;28;19924;-70
2022/08/11 12:46:10;;;;;;;;;;;29.60;38.90;;;;;;5078355;28;20372;-69
2022/08/11 12:54:16;;;;;;;;;;;29.80;39.70;;;;;;5082961;28;20297;-69
2022/08/11 13:05:02;;;;;;;;;;;29.80;38.00;;;;;;5083436;28;19923;-68
2022/08/11 13:07:28;;;;;;;;;;;30.00;36.90;;;;;;5073121;28;19948;-69
2022/08/11 13:09:55;;;;;;;;;;;29.90;36.70;;;;;;5082303;28;19912;-71
2022/08/11 13:15:06;;;;;;;;;;;30.00;34.60;;;;;;5077527;28;19930;-69
2022/08/11 13:17:33;;;;;;;;;;;30.00;36.30;;;;;;5077907;28;20280;-68
2022/08/11 13:19:59;;;;;;;;;;;30.10;35.50;;;;;;5078044;28;19939;-69
2022/08/11 13:22:25;;;;;;;;;;;30.10;35.80;;;;;;5080589;28;19916;-68
2022/08/11 13:24:54;;;;;;;;;;;30.10;35.80;;;;;;5080201;28;20335;-67
2022/08/11 13:27:20;;;;;;;;;;;30.10;36.80;;;;;;5082788;28;19916;-66
2022/08/11 13:29:46;;;;;;;;;;;30.00;35.80;;;;;;5084837;28;19920;-68
2022/08/11 13:32:13;;;;;;;;;;;30.00;35.30;;;;;;5074388;28;19913;-69
2022/08/11 13:34:41;;;;;;;;;;;30.20;35.50;;;;;;5087267;28;19920;-69
2022/08/11 13:37:07;;;;;;;;;;;30.20;35.10;;;;;;5087169;28;19916;-68
2022/08/11 13:39:34;;;;;;;;;;;30.20;36.30;;;;;;5081887;28;20390;-68
2022/08/11 13:42:01;;;;;;;;;;;30.20;36.20;;;;;;5090945;28;19916;-68
2022/08/11 13:44:28;;;;;;;;;;;30.10;36.10;;;;;;5084039;28;20460;-68
2022/08/11 13:47:02;;;;;;;;;;;30.20;35.70;;;;;;5086595;28;19928;-68
2022/08/11 13:49:33;;;;;;;;;;;30.20;35.30;;;;;;5077250;28;19912;-69
2022/08/11 13:52:00;;;;;;;;;;;30.40;35.80;;;;;;5073479;28;19919;-68
2022/08/11 13:54:32;;;;;;;;;;;30.40;34.80;;;;;;5083506;28;20381;-68
2022/08/11 13:57:05;;;;;;;;;;;30.50;33.80;;;;;;5085132;28;19943;-68
2022/08/11 13:59:30;;;;;;;;;;;30.50;33.50;;;;;;5073009;28;19931;-68
2022/08/11 14:01:59;;;;;;;;;;;30.60;35.60;;;;;;5081882;28;19924;-68
2022/08/11 14:04:51;;;;;;;;;;;30.60;33.40;;;;;;5081431;28;19920;-69
2022/08/11 14:07:19;;;;;;;;;;;30.70;32.90;;;;;;5074318;28;20298;-68
2022/08/11 14:09:45;;;;;;;;;;;30.70;32.80;;;;;;5080920;28;19920;-68
2022/08/11 14:15:03;;;;;;;;;;;30.70;32.10;;;;;;5080449;28;19942;-69
2022/08/11 14:17:31;;;;;;;;;;;30.80;31.40;;;;;;5083869;28;19916;-68
2022/08/11 14:20:00;;;;;;;;;;;30.80;31.00;;;;;;5084441;28;19943;-67
2022/08/11 14:22:26;;;;;;;;;;;30.90;30.50;;;;;;5080650;28;20373;-68
2022/08/11 14:24:52;;;;;;;;;;;30.90;30.50;;;;;;5085737;28;19923;-67
2022/08/11 14:27:18;;;;;;;;;;;30.90;30.70;;;;;;5076076;28;19936;-68
2022/08/11 14:29:44;;;;;;;;;;;30.90;30.80;;;;;;5058613;28;19916;-68
2022/08/11 14:32:11;;;;;;;;;;;31.10;31.50;;;;;;5081275;28;19911;-70
2022/08/11 14:34:40;;;;;;;;;;;31.20;30.60;;;;;;5083913;28;19916;-70
2022/08/11 14:37:10;;;;;;;;;;;31.20;30.90;;;;;;5081321;28;19924;-69
2022/08/11 14:39:43;;;;;;;;;;;31.10;30.90;;;;;;5073265;28;19934;-68
2022/08/11 14:47:42;;;;;;;;;;;31.20;29.60;;;;;;5075951;28;20381;-68
2022/08/11 14:50:12;;;;;;;;;;;31.30;30.40;;;;;;5079803;28;20257;-68
2022/08/11 14:52:53;;;;;;;;;;;31.30;30.50;;;;;;5070993;28;19920;-68
2022/08/11 14:58:04;;;;;;;;;;;31.40;30.00;;;;;;5073911;28;19950;-69
2022/08/11 15:00:31;;;;;;;;;;;31.60;29.70;;;;;;5072041;28;20450;-74
2022/08/11 15:03:09;;;;;;;;;;;31.80;29.60;;;;;;5078306;28;19934;-69
2022/08/11 15:05:40;;;;;;;;;;;32.00;29.00;;;;;;5075833;28;20007;-69
2022/08/11 15:08:07;;;;;;;;;;;33.70;29.00;;;;;;5070160;28;19912;-68
2022/08/11 15:10:33;;;;;;;;;;;35.60;26.60;;;;;;5078610;28;20277;-69
2022/08/11 15:12:59;;;;;;;;;;;36.50;24.70;;;;;;5074862;28;19912;-68
2022/08/11 15:18:11;;;;;;;;;;;38.10;22.70;;;;;;5077373;28;19932;-70
2022/08/11 15:26:09;;;;;;;;;;;40.60;18.70;;;;;;5078181;28;20431;-68
2022/08/11 15:39:25;;;;;;;;;;;40.40;17.80;;;;;;5082357;28;20837;-69
2022/08/11 15:47:47;;;;;;;;;;;40.60;16.70;;;;;;5073740;28;20053;-68
2022/08/11 15:50:15;;;;;;;;;;;41.40;16.20;;;;;;5078951;28;19992;-67
2022/08/11 15:52:44;;;;;;;;;;;42.10;15.40;;;;;;5075238;28;20270;-69
2022/08/11 15:55:10;;;;;;;;;;;42.20;15.40;;;;;;5075493;28;19912;-68
2022/08/11 16:05:49;;;;;;;;;;;41.60;14.90;;;;;;5075802;28;19934;-68
2022/08/11 16:08:17;;;;;;;;;;;41.20;15.40;;;;;;5080106;28;20365;-69
2022/08/11 16:10:43;;;;;;;;;;;40.10;15.80;;;;;;5075283;28;19923;-68
2022/08/11 16:18:23;;;;;;;;;;;39.40;16.30;;;;;;5074079;28;19970;-67
2022/08/11 16:20:50;;;;;;;;;;;39.20;16.40;;;;;;5074407;28;19940;-70
2022/08/11 16:23:16;;;;;;;;;;;39.00;16.10;;;;;;5064874;28;19916;-70
2022/08/11 16:25:43;;;;;;;;;;;39.40;15.80;;;;;;5073239;28;19916;-70
2022/08/11 16:28:10;;;;;;;;;;;39.70;16.00;;;;;;5065444;28;19939;-69
2022/08/11 16:30:38;;;;;;;;;;;39.40;16.20;;;;;;5073629;28;19955;-70
2022/08/11 16:33:04;;;;;;;;;;;39.40;15.90;;;;;;5081774;28;20044;-69
2022/08/11 16:38:34;;;;;;;;;;;39.10;15.50;;;;;;5072927;28;20343;-71
2022/08/11 16:41:10;;;;;;;;;;;38.50;15.20;;;;;;5082289;28;19919;-70
2022/08/11 16:49:10;;;;;;;;;;;37.30;17.40;;;;;;5077358;28;20431;-71
2022/08/11 16:51:36;;;;;;;;;;;37.10;17.40;;;;;;5063269;28;19942;-69
2022/08/11 16:54:02;;;;;;;;;;;37.10;17.20;;;;;;5075142;28;20011;-69
2022/08/11 16:56:33;;;;;;;;;;;37.20;17.40;;;;;;5083008;28;20243;-69
2022/08/11 16:59:15;;;;;;;;;;;37.30;16.80;;;;;;5072845;28;19916;-69
2022/08/11 17:01:51;;;;;;;;;;;37.10;17.40;;;;;;5077278;28;20266;-69
2022/08/11 17:18:41;;;;;;;;;;;37.30;17.00;;;;;;5083530;28;19935;-68
2022/08/11 17:21:22;;;;;;;;;;;37.40;16.40;;;;;;5083491;28;20025;-70
2022/08/11 17:23:51;;;;;;;;;;;38.00;16.20;;;;;;5079738;28;19977;-69
2022/08/11 17:26:25;;;;;;;;;;;38.40;16.00;;;;;;5078145;28;20004;-69
2022/08/11 17:28:58;;;;;;;;;;;38.70;16.10;;;;;;5083227;28;19916;-69
2022/08/11 17:36:55;;;;;;;;;;;38.60;16.40;;;;;;5083460;28;19986;-69
2022/08/11 17:39:22;;;;;;;;;;;38.60;16.60;;;;;;5086810;28;20019;-69
2022/08/11 17:50:03;;;;;;;;;;;37.80;17.50;;;;;;5078218;28;19934;-69
2022/08/11 18:00:42;;;;;;;;;;;37.40;18.00;;;;;;5081980;28;19922;-68
2022/08/11 18:05:53;;;;;;;;;;;37.20;18.00;;;;;;5066749;28;19924;-70
